Thunder radar more information blitzortung!


Radar de pluja more information rain snow radar


Visita la nostra xarxa de llocs de meteo:

Template documentation
and downloads

And another site



No particular awareness of the weather is required.    There are no Weather-warnings

Pagina Historial Weather Underground text

Diari Resum Octubre 17, 2017 Unitats:  Mètric    Imperial   Tant
« Previous Dia
SegĂźent Dia »
Diari Setmana Mensual Anual Personalitzada
  Maxima: Minima: Media:
Temperatura: -17.8 °C -10.4 °C -7.2 °C
Punt de rosada: -17.8 °C -11.6 °C -10.4 °C
Humitat: Humidity % 52 % 70 %
Wind Speed: 0 km/h 0 km/h 7.2 km/h
RĂ fegues de vent: 0 km/h - -
Vent:- - South
Pression baro: 0 hPa 34428.8 hPa -
Precipitacions: 0 mm    
Historical Graphs
 
 
Dades de taula per Octubre 17, 2017
Temps Temperatura Punt de rosada Pression baro Vent Wind Speed RĂ fegues de vent Humitat Rainfall Rate (Hourly)
-17.8 °C -17.8 °C 0 hPa Calm     Humidity % 0 mm
00:00 -8.2 °C -10.7 °C 34740.4 hPa WSW 3.7 km/h 3.7 km/h 75 % 0 mm
00:05 -8.1 °C -10.6 °C 34740.4 hPa WSW 2.6 km/h 5.1 km/h 75 % 0 mm
00:10 -8.1 °C -10.6 °C 34740.4 hPa Calm     75 % 0 mm
00:15 -8.2 °C -10.7 °C 34740.4 hPa WSW 3.1 km/h 3.1 km/h 75 % 0 mm
00:20 -8.2 °C -10.7 °C 34740.4 hPa Calm     75 % 0 mm
00:25 -8.2 °C -10.7 °C 34740.4 hPa WSW 3.1 km/h   75 % 0 mm
00:30 -8.2 °C -10.6 °C 34740.4 hPa Calm     76 % 0 mm
00:35 -8.2 °C -10.6 °C 34740.4 hPa ENE 3.7 km/h 3.7 km/h 76 % 0 mm
00:40 -8.3 °C -10.7 °C 34740.4 hPa ENE 3.1 km/h   76 % 0 mm
00:45 -8.3 °C -10.7 °C 34740.4 hPa Calm     76 % 0 mm
00:50 -8.4 °C -10.7 °C 34740.4 hPa Calm     77 % 0 mm
00:55 -9.9 °C -11.4 °C 34669.3 hPa Calm     84 % 0 mm
01:05 -9.9 °C -11.3 °C 34669.3 hPa Calm     85 % 0 mm
01:15 -10 °C -11.4 °C 34669.3 hPa Calm     85 % 0 mm
01:25 -10.1 °C -11.4 °C 34669.3 hPa Calm     85 % 0 mm
01:35 -10.1 °C -11.4 °C 34669.3 hPa Calm     85 % 0 mm
01:45 -10.2 °C -11.6 °C 34669.3 hPa Calm   2.6 km/h 85 % 0 mm
02:05 -10.2 °C -11.4 °C 34669.3 hPa Calm     86 % 0 mm
02:15 -10.2 °C -11.4 °C 34669.3 hPa WNW 2.6 km/h 2.6 km/h 86 % 0 mm
02:25 -10.2 °C -11.4 °C 34669.3 hPa Calm     86 % 0 mm
02:35 -10.2 °C -11.3 °C 34669.3 hPa Calm     87 % 0 mm
02:45 -10.2 °C -11.4 °C 34635.4 hPa Calm     87 % 0 mm
02:55 -10.2 °C -11.4 °C 34635.4 hPa Calm     87 % 0 mm
03:05 -10.2 °C -11.3 °C 34635.4 hPa Calm     88 % 0 mm
03:15 -10.2 °C -11.3 °C 34669.3 hPa Calm     88 % 0 mm
03:25 -10.4 °C -11.6 °C 34669.3 hPa Calm     87 % 0 mm
03:35 -10.3 °C -11.3 °C 34669.3 hPa Calm     88 % 0 mm
03:45 -10.2 °C -11.3 °C 34669.3 hPa Calm   5.1 km/h 88 % 0 mm
03:55 -10.1 °C -11.2 °C 34669.3 hPa Calm   5.1 km/h 88 % 0 mm
04:05 -9.8 °C -10.7 °C 34669.3 hPa Calm     90 % 0 mm
04:15 -9.7 °C -10.7 °C 34669.3 hPa Calm   2.6 km/h 89 % 0 mm
04:25 -9.2 °C -10.2 °C 34669.3 hPa SW 2.6 km/h 5.1 km/h 89 % 0 mm
04:35 -9.1 °C -10.2 °C 34669.3 hPa SSW 2.6 km/h 5.1 km/h 88 % 0 mm
04:45 -8.7 °C -10.1 °C 34635.4 hPa Calm   5.1 km/h 86 % 0 mm
04:55 -8.7 °C -10.1 °C 34635.4 hPa Calm   5.1 km/h 85 % 0 mm
05:05 -8.7 °C -10.2 °C 34635.4 hPa Calm   5.1 km/h 84 % 0 mm
05:15 -8.6 °C -10.2 °C 34635.4 hPa WSW 2.6 km/h 5.1 km/h 83 % 0 mm
05:35 -8.2 °C -10.1 °C 34635.4 hPa South 2.6 km/h 5.1 km/h 80 % 0 mm
05:45 -8.1 °C -10.2 °C 34669.3 hPa SE 2.6 km/h 5.1 km/h 79 % 0 mm
05:50 -8 °C -10.1 °C 34669.3 hPa Calm     79 % 0 mm
10:50 -7.9 °C -10 °C 34669.3 hPa WNW 6 km/h   79 % 0 mm
10:55 -7.8 °C -9.9 °C 34669.3 hPa WSW 6 km/h 6 km/h 78 % 0 mm
11:00 -7.6 °C -9.8 °C 34635.4 hPa ENE 5.6 km/h 5.6 km/h 78 % 0 mm
11:05 -7.3 °C -9.6 °C 34635.4 hPa NNW 9.8 km/h 9.8 km/h 77 % 0 mm
11:10 -7.3 °C -9.7 °C 34635.4 hPa NNE 11.9 km/h 11.9 km/h 76 % 0 mm
11:15 -6.9 °C -9.5 °C 34669.3 hPa NNE 9 km/h 9 km/h 75 % 0 mm
11:20 -6.7 °C -9.4 °C 34669.3 hPa ENE 11.9 km/h 11.9 km/h 74 % 0 mm
11:25 -6.7 °C -9.5 °C 34669.3 hPa North 15 km/h 15 km/h 73 % 0 mm
11:30 -6.6 °C -9.6 °C 34669.3 hPa ENE 15 km/h 15 km/h 71 % 0 mm
11:35 -6.5 °C -9.6 °C 34669.3 hPa NNE 15 km/h 15 km/h 70 % 0 mm
11:40 -6.5 °C -9.8 °C 34669.3 hPa NE 15 km/h 15 km/h 69 % 0 mm
11:45 -6.4 °C -9.7 °C 34669.3 hPa NE 15 km/h 15 km/h 69 % 0 mm
11:50 -6.4 °C -9.8 °C 34669.3 hPa East 11.9 km/h 11.9 km/h 68 % 0 mm
11:55 -6.3 °C -9.7 °C 34669.3 hPa ESE 11.9 km/h 11.9 km/h 68 % 0 mm
12:00 -6.1 °C -9.5 °C 34669.3 hPa NNE 11.9 km/h 11.9 km/h 68 % 0 mm
12:05 -6.2 °C -9.8 °C 34669.3 hPa ESE 11.9 km/h 11.9 km/h 67 % 0 mm
12:10 -6 °C -9.6 °C 34669.3 hPa ENE 6 km/h 6 km/h 67 % 0 mm
12:15 -6.1 °C -9.7 °C 34669.3 hPa ESE 9 km/h 9 km/h 66 % 0 mm
12:20 -6.1 °C -9.8 °C 34669.3 hPa East 9 km/h 9 km/h 66 % 0 mm
12:21 -6.1 °C -9.8 °C 34669.3 hPa East 9 km/h 9 km/h 66 % 0 mm
12:26 -6.2 °C -9.9 °C 34635.4 hPa East 12.7 km/h 12.7 km/h 66 % 0 mm
12:31 -6.1 °C -9.6 °C 34635.4 hPa ENE 11.9 km/h 11.9 km/h 67 % 0 mm
12:36 -6.1 °C -9.7 °C 34635.4 hPa ESE 6.3 km/h 6.3 km/h 66 % 0 mm
12:41 -5.8 °C -9.8 °C 34635.4 hPa SSE 9 km/h 9 km/h 64 % 0 mm
12:46 -5.7 °C -9.5 °C 34635.4 hPa South 6 km/h 6 km/h 65 % 0 mm
12:51 -5.7 °C -9.8 °C 34635.4 hPa East 11.9 km/h 11.9 km/h 63 % 0 mm
12:56 -5.6 °C -9.7 °C 34635.4 hPa ESE 9 km/h 9 km/h 63 % 0 mm
13:01 -5.6 °C -9.7 °C 34635.4 hPa SW 11.9 km/h 11.9 km/h 63 % 0 mm
13:06 -5.2 °C -9.3 °C 34635.4 hPa SE 8.5 km/h 8.5 km/h 63 % 0 mm
13:11 -5.3 °C -9.6 °C 34635.4 hPa South 6 km/h 6 km/h 62 % 0 mm
13:16 -5.3 °C -9.6 °C 34635.4 hPa ESE 6 km/h 6 km/h 62 % 0 mm
13:21 -5 °C -9.3 °C 34635.4 hPa WSW 9 km/h 9 km/h 62 % 0 mm
13:26 -5.3 °C -9.7 °C 34601.5 hPa East 6 km/h 6 km/h 61 % 0 mm
13:31 -5.4 °C -9.8 °C 34601.5 hPa East 14 km/h 14 km/h 61 % 0 mm
13:36 -5.2 °C -9.5 °C 34601.5 hPa WSW 6 km/h 6 km/h 62 % 0 mm
13:41 -5 °C -9.6 °C 34601.5 hPa East 6.8 km/h 6.8 km/h 60 % 0 mm
13:46 -4.9 °C -9.4 °C 34601.5 hPa ESE 7.6 km/h   60 % 0 mm
13:51 -4.8 °C -9.3 °C 34601.5 hPa East 9 km/h 9 km/h 60 % 0 mm
13:56 -4.8 °C -9.7 °C 34567.7 hPa SSW 15 km/h 15 km/h 58 % 0 mm
14:01 -4.8 °C -9.5 °C 34567.7 hPa SW 9 km/h 9 km/h 59 % 0 mm
14:06 -4.8 °C -9.3 °C 34567.7 hPa WSW 11.9 km/h 11.9 km/h 60 % 0 mm
14:11 -4.9 °C -9.6 °C 34601.5 hPa WSW 9 km/h 9 km/h 59 % 0 mm
14:16 -4.9 °C -9.6 °C 34601.5 hPa SW 8.5 km/h 8.5 km/h 59 % 0 mm
14:21 -4.8 °C -9.6 °C 34601.5 hPa SSW 15 km/h 15 km/h 59 % 0 mm
14:26 -4.8 °C -9.8 °C 34601.5 hPa SSE 6 km/h 6 km/h 57 % 0 mm
14:31 -4.7 °C -9.7 °C 34601.5 hPa WSW 6.3 km/h 6.3 km/h 57 % 0 mm
14:36 -4.8 °C -9.9 °C 34601.5 hPa South 9 km/h 9 km/h 56 % 0 mm
14:41 -4.7 °C -9.8 °C 34601.5 hPa ESE 14.5 km/h 14.5 km/h 56 % 0 mm
14:46 -4.8 °C -9.8 °C 34601.5 hPa East 9 km/h 9 km/h 57 % 0 mm
14:51 -4.6 °C -9.9 °C 34601.5 hPa South 11.9 km/h 11.9 km/h 55 % 0 mm
14:56 -4.6 °C -9.6 °C 34567.7 hPa NW 15 km/h 15 km/h 57 % 0 mm
14:57 -4.7 °C -9.7 °C 34567.7 hPa NNW 11.9 km/h 11.9 km/h 57 % 0 mm
15:02 -4.4 °C -9.9 °C 34567.7 hPa SSE 20.9 km/h 20.9 km/h 54 % 0 mm
15:07 -4.7 °C -9.9 °C 34567.7 hPa SSE 14.5 km/h 14.5 km/h 55 % 0 mm
15:12 -4.5 °C -9.8 °C 34533.8 hPa ESE 20.9 km/h 20.9 km/h 55 % 0 mm
15:17 -4.6 °C -10.1 °C 34533.8 hPa ESE 15.6 km/h 15.6 km/h 54 % 0 mm
15:22 -4.7 °C -10.2 °C 34533.8 hPa South 15.6 km/h 15.6 km/h 54 % 0 mm
15:27 -4.7 °C -9.9 °C 34533.8 hPa ESE 15 km/h 15 km/h 55 % 0 mm
15:32 -4.8 °C -10.2 °C 34533.8 hPa ESE 23.8 km/h 23.8 km/h 54 % 0 mm
15:37 -4.6 °C -10.4 °C 34533.8 hPa East 11.9 km/h 11.9 km/h 52 % 0 mm
15:42 -4.7 °C -10.3 °C 34533.8 hPa ESE 9 km/h 9 km/h 53 % 0 mm
15:47 -4.7 °C -10.3 °C 34533.8 hPa ENE 17.9 km/h 17.9 km/h 53 % 0 mm
15:52 -4.9 °C -10.3 °C 34533.8 hPa ESE 23.8 km/h 23.8 km/h 54 % 0 mm
15:57 -4.9 °C -10.6 °C 34533.8 hPa SE 20.9 km/h 20.9 km/h 53 % 0 mm
16:02 -5 °C -10.6 °C 34533.8 hPa ESE 29.8 km/h 29.8 km/h 53 % 0 mm
16:07 -5.1 °C -10.7 °C 34533.8 hPa ESE 17.9 km/h 17.9 km/h 53 % 0 mm
16:12 -5.2 °C -10.6 °C 34533.8 hPa ESE 17.9 km/h 17.9 km/h 54 % 0 mm
16:17 -5.1 °C -10.6 °C 34533.8 hPa ENE 26.9 km/h 26.9 km/h 54 % 0 mm
16:22 -4.9 °C -10.4 °C 34533.8 hPa ESE 20.9 km/h 20.9 km/h 54 % 0 mm
16:27 -5.1 °C -10.6 °C 34533.8 hPa ENE 20.9 km/h 20.9 km/h 54 % 0 mm
16:32 -5.1 °C -10.5 °C 34533.8 hPa ESE 23.8 km/h 23.8 km/h 54 % 0 mm
16:37 -5.1 °C -10.5 °C 34533.8 hPa ESE 20.9 km/h 20.9 km/h 54 % 0 mm
16:42 -5.1 °C -10.6 °C 34533.8 hPa ENE 20.9 km/h 20.9 km/h 54 % 0 mm
16:47 -5.2 °C -10.7 °C 34533.8 hPa ENE 20.9 km/h 20.9 km/h 54 % 0 mm
16:52 -5.3 °C -10.7 °C 34533.8 hPa East 20.9 km/h 20.9 km/h 54 % 0 mm
16:57 -5.3 °C -10.8 °C 34533.8 hPa SE 20.9 km/h 20.9 km/h 54 % 0 mm
17:02 -5.3 °C -10.6 °C 34533.8 hPa ESE 26.9 km/h 26.9 km/h 55 % 0 mm
17:07 -5.1 °C -10.3 °C 34533.8 hPa SSE 9 km/h 9 km/h 55 % 0 mm
17:12 -4.6 °C -10.1 °C 34533.8 hPa SSW 11.9 km/h 11.9 km/h 54 % 0 mm
17:17 -4.5 °C -10 °C 34533.8 hPa WSW 17.9 km/h 17.9 km/h 54 % 0 mm
17:27 -4.4 °C -10.1 °C 34533.8 hPa SSW 18.3 km/h 18.3 km/h 53 % 0 mm
17:32 -4.6 °C -10.1 °C 34533.8 hPa SW 15.3 km/h 15.3 km/h 54 % 0 mm
17:37 -4.6 °C -10.2 °C 34533.8 hPa SW 15 km/h 15 km/h 53 % 0 mm
17:42 -4.5 °C -10 °C 34533.8 hPa WSW 17.9 km/h 17.9 km/h 54 % 0 mm
17:47 -4.7 °C -10.3 °C 34533.8 hPa WNW 17.9 km/h 17.9 km/h 53 % 0 mm
17:52 -4.8 °C -10.4 °C 34533.8 hPa SSE 15 km/h 15 km/h 53 % 0 mm
17:57 -4.8 °C -10.4 °C 34533.8 hPa SSW 9 km/h 9.3 km/h 53 % 0 mm
18:02 -4.9 °C -10.6 °C 34533.8 hPa WSW 20.9 km/h 20.9 km/h 53 % 0 mm
18:07 -5 °C -10.6 °C 34533.8 hPa SW 17.9 km/h 17.9 km/h 53 % 0 mm
18:12 -5.1 °C -10.6 °C 34533.8 hPa SW 15.6 km/h 15.6 km/h 54 % 0 mm
18:17 -5.2 °C -10.7 °C 34533.8 hPa SSE 16.1 km/h 16.1 km/h 54 % 0 mm
18:22 -5.4 °C -10.7 °C 34533.8 hPa SSW 17.9 km/h 17.9 km/h 55 % 0 mm
18:27 -5.4 °C -10.6 °C 34533.8 hPa SW 9 km/h 9 km/h 56 % 0 mm
18:32 -5.6 °C -10.7 °C 34533.8 hPa SSW 9 km/h 9 km/h 56 % 0 mm
18:37 -5.6 °C -10.6 °C 34533.8 hPa WSW 9 km/h 10.3 km/h 57 % 0 mm
18:42 -5.8 °C -10.8 °C 34533.8 hPa SW 15 km/h 15 km/h 57 % 0 mm
18:47 -6 °C -10.8 °C 34533.8 hPa SSW 11.9 km/h 11.9 km/h 58 % 0 mm
18:52 -6.1 °C -10.9 °C 34533.8 hPa SSW 15 km/h 15 km/h 58 % 0 mm
18:57 -6.3 °C -10.9 °C 34533.8 hPa SW 15 km/h 15 km/h 59 % 0 mm
19:02 -6.3 °C -10.9 °C 34533.8 hPa SW 15 km/h 15 km/h 59 % 0 mm
19:07 -6.4 °C -10.9 °C 34533.8 hPa South 15 km/h 15 km/h 60 % 0 mm
19:12 -6.5 °C -10.8 °C 34533.8 hPa SW 11.9 km/h 11.9 km/h 61 % 0 mm
19:15 -8.9 °C -10.9 °C 34533.8 hPa Calm     80 % 0 mm
19:17 -6.6 °C -10.9 °C 34533.8 hPa SW 15 km/h 15 km/h 61 % 0 mm
19:22 -6.7 °C -10.8 °C 34533.8 hPa South 16.6 km/h 16.6 km/h 62 % 0 mm
19:25 -8.9 °C -10.9 °C 34533.8 hPa Calm     80 % 0 mm
19:27 -6.7 °C -10.7 °C 34533.8 hPa WSW 9 km/h 9 km/h 63 % 0 mm
19:32 -6.8 °C -10.8 °C 34533.8 hPa WSW 11.9 km/h 11.9 km/h 63 % 0 mm
19:35 -8.9 °C -10.9 °C 34533.8 hPa Calm     80 % 0 mm
19:37 -6.9 °C -10.8 °C 34533.8 hPa SSW 11.9 km/h 11.9 km/h 64 % 0 mm
19:42 -6.9 °C -10.8 °C 34533.8 hPa WSW 9.3 km/h 9.3 km/h 64 % 0 mm
19:45 -9 °C -10.9 °C 34496.6 hPa Calm     80 % 0 mm
19:47 -7 °C -10.7 °C 34533.8 hPa WSW 12.7 km/h 12.7 km/h 65 % 0 mm
19:52 -7.1 °C -10.7 °C 34533.8 hPa SW 11.1 km/h 11.1 km/h 66 % 0 mm
19:55 -9 °C -10.8 °C 34496.6 hPa Calm     81 % 0 mm
19:57 -7.1 °C -10.7 °C 34533.8 hPa WSW 6.3 km/h 6.3 km/h 66 % 0 mm
20:02 -7.2 °C -10.8 °C 34533.8 hPa SW 6.8 km/h 6.8 km/h 66 % 0 mm
20:05 -9.1 °C -10.9 °C 34533.8 hPa NE 2.6 km/h 7.7 km/h 81 % 0 mm
20:07 -7.2 °C -10.7 °C 34533.8 hPa SW 9 km/h 9 km/h 67 % 0 mm
20:12 -7.3 °C -10.6 °C 34533.8 hPa SW 6 km/h 6 km/h 69 % 0 mm
20:15 -9 °C -10.8 °C 34533.8 hPa NE 5.1 km/h 5.1 km/h 81 % 0 mm
20:17 -7.4 °C -10.6 °C 34533.8 hPa SW 3.1 km/h 3.1 km/h 69 % 0 mm
20:22 -7.4 °C -10.7 °C 34533.8 hPa SW 6.3 km/h 6.3 km/h 69 % 0 mm
20:25 -9 °C -10.8 °C 34533.8 hPa NE 5.1 km/h 7.7 km/h 81 % 0 mm
20:27 -7.4 °C -10.6 °C 34533.8 hPa SW 6 km/h 6 km/h 70 % 0 mm
20:32 -7.5 °C -10.6 °C 34533.8 hPa SW 4.2 km/h 4.2 km/h 70 % 0 mm
20:37 -7.6 °C -10.5 °C 34533.8 hPa SW 3.1 km/h   71 % 0 mm
20:42 -7.6 °C -10.6 °C 34533.8 hPa Calm     71 % 0 mm
20:45 -9.1 °C -10.9 °C 34496.6 hPa NW 2.6 km/h 5.1 km/h 81 % 0 mm
20:47 -7.7 °C -10.5 °C 34533.8 hPa Calm     72 % 0 mm
20:52 -7.7 °C -10.6 °C 34533.8 hPa Calm     72 % 0 mm
20:55 -9.1 °C -10.8 °C 34496.6 hPa Calm   5.1 km/h 82 % 0 mm
20:57 -7.8 °C -10.6 °C 34533.8 hPa Calm     72 % 0 mm
21:02 -7.8 °C -10.6 °C 34533.8 hPa Calm     73 % 0 mm
21:03 -7.8 °C -10.6 °C 34533.8 hPa Calm     73 % 0 mm
21:05 -9.1 °C -10.8 °C 34496.6 hPa Calm   5.1 km/h 82 % 0 mm
21:08 -7.8 °C -10.6 °C 34533.8 hPa Calm     73 % 0 mm
21:13 -7.8 °C -10.6 °C 34533.8 hPa NW 3.7 km/h 3.7 km/h 73 % 0 mm
21:15 -9.1 °C -10.8 °C 34496.6 hPa SW 2.6 km/h 2.6 km/h 82 % 0 mm
21:18 -7.8 °C -10.6 °C 34533.8 hPa NW 3.1 km/h   73 % 0 mm
21:23 -7.8 °C -10.6 °C 34533.8 hPa NW 3.1 km/h   73 % 0 mm
21:25 -9.1 °C -10.8 °C 34496.6 hPa Calm   5.1 km/h 82 % 0 mm
21:28 -7.9 °C -10.6 °C 34533.8 hPa Calm     73 % 0 mm
21:33 -7.9 °C -10.6 °C 34533.8 hPa NW 3.1 km/h   73 % 0 mm
21:35 -9.1 °C -10.8 °C 34496.6 hPa Calm   5.1 km/h 82 % 0 mm
21:38 -7.9 °C -10.5 °C 34533.8 hPa Calm     74 % 0 mm
21:43 -7.9 °C -10.6 °C 34533.8 hPa NW 3.1 km/h   74 % 0 mm
21:45 -9 °C -10.7 °C 34496.6 hPa ENE 2.6 km/h 5.1 km/h 82 % 0 mm
21:48 -7.9 °C -10.5 °C 34533.8 hPa NW 3.7 km/h 3.7 km/h 74 % 0 mm
21:53 -7.9 °C -10.5 °C 34533.8 hPa Calm     74 % 0 mm
21:58 -7.9 °C -10.4 °C 34533.8 hPa Calm     75 % 0 mm
22:03 -7.9 °C -10.4 °C 34533.8 hPa Calm     75 % 0 mm
22:04 -7.9 °C -10.4 °C 34533.8 hPa Calm     75 % 0 mm
22:05 -9.2 °C -10.9 °C 34462.7 hPa SW 2.6 km/h 5.1 km/h 81 % 0 mm
22:09 -7.9 °C -10.4 °C 34533.8 hPa NW 3.1 km/h   75 % 0 mm
22:14 -7.9 °C -10.4 °C 34533.8 hPa Calm     75 % 0 mm
22:15 -9.2 °C -10.9 °C 34462.7 hPa Calm     82 % 0 mm
22:19 -8 °C -10.5 °C 34533.8 hPa Calm     75 % 0 mm
22:24 -8.1 °C -10.6 °C 34533.8 hPa NW 3.1 km/h   75 % 0 mm
22:25 -9.1 °C -10.8 °C 34462.7 hPa Calm     82 % 0 mm
22:29 -8.2 °C -10.7 °C 34533.8 hPa NW 3.1 km/h 3.1 km/h 75 % 0 mm
22:34 -8.3 °C -10.7 °C 34533.8 hPa NW 3.1 km/h   76 % 0 mm
22:35 -9.1 °C -10.8 °C 34462.7 hPa Calm   5.1 km/h 82 % 0 mm
22:39 -8.3 °C -10.7 °C 34533.8 hPa Calm     76 % 0 mm
22:44 -8.3 °C -10.7 °C 34533.8 hPa Calm     76 % 0 mm
22:45 -9.1 °C -10.8 °C 34428.8 hPa Calm   2.6 km/h 82 % 0 mm
22:49 -8.4 °C -10.7 °C 34533.8 hPa Calm     77 % 0 mm
22:54 -8.4 °C -10.7 °C 34533.8 hPa Calm     77 % 0 mm
22:55 -9 °C -10.6 °C 34428.8 hPa Calm     83 % 0 mm
22:59 -8.5 °C -10.7 °C 34533.8 hPa Calm     77 % 0 mm
23:04 -8.6 °C -10.8 °C 34533.8 hPa West 3.7 km/h   77 % 0 mm
23:05 -8.9 °C -10.6 °C 34428.8 hPa WNW 2.6 km/h 2.6 km/h 82 % 0 mm
23:09 -8.6 °C -10.9 °C 34533.8 hPa Calm     77 % 0 mm
23:14 -8.6 °C -10.7 °C 34533.8 hPa Calm     78 % 0 mm
23:15 -8.9 °C -10.7 °C 34462.7 hPa NE 2.6 km/h 7.7 km/h 82 % 0 mm
23:19 -8.7 °C -10.8 °C 34533.8 hPa Calm     78 % 0 mm
23:24 -8.7 °C -10.7 °C 34533.8 hPa Calm     79 % 0 mm
23:25 -8.9 °C -10.6 °C 34462.7 hPa Calm   2.6 km/h 82 % 0 mm
23:29 -8.7 °C -10.7 °C 34533.8 hPa NE 3.1 km/h   79 % 0 mm
23:34 -8.8 °C -10.8 °C 34533.8 hPa Calm     79 % 0 mm
23:35 -8.9 °C -10.6 °C 34462.7 hPa North 2.6 km/h 5.1 km/h 82 % 0 mm
23:39 -8.8 °C -10.8 °C 34533.8 hPa Calm     79 % 0 mm
23:44 -8.8 °C -10.9 °C 34533.8 hPa Calm     79 % 0 mm
23:45 -8.9 °C -10.6 °C 34428.8 hPa NNE 7.7 km/h 10.3 km/h 82 % 0 mm
23:49 -8.8 °C -10.9 °C 34533.8 hPa Calm     79 % 0 mm
23:54 -8.8 °C -10.9 °C 34533.8 hPa Calm     79 % 0 mm
23:55 -8.8 °C -10.6 °C 34428.8 hPa NE 2.6 km/h 7.7 km/h 82 % 0 mm
23:59 -8.9 °C -10.9 °C 34533.8 hPa Calm     79 % 0 mm
Meteo Sesrovires
Elogis d' Weather Underground - 1.75 mb

Guio original per  Jim McMurry - jmcmurry@mwt.net Adaptat per a la plantilla per  Wim van der Kuil - Leuven-Template.eu

Trobareu la nostra informacio del temps tambe a:

Weather Underground

AWEKAS